sensor_id;sensor_type;location;lat;lon;timestamp;P1;durP1;ratioP1;P2;durP2;ratioP2
51838;SDS011;37886;53.174;6.368;2023-08-20T00:00:55;521.17;;;466.33;;
51838;SDS011;37886;53.174;6.368;2023-08-20T00:03:21;496.17;;;432.35;;
51838;SDS011;37886;53.174;6.368;2023-08-20T00:05:47;485.15;;;432.88;;
51838;SDS011;37886;53.174;6.368;2023-08-20T00:08:13;493.23;;;440.98;;
51838;SDS011;37886;53.174;6.368;2023-08-20T00:10:39;484.50;;;430.45;;
51838;SDS011;37886;53.174;6.368;2023-08-20T00:13:04;514.50;;;454.13;;
51838;SDS011;37886;53.174;6.368;2023-08-20T00:15:30;602.42;;;542.65;;
51838;SDS011;37886;53.174;6.368;2023-08-20T00:17:56;709.25;;;640.10;;
51838;SDS011;37886;53.174;6.368;2023-08-20T00:20:22;728.22;;;659.92;;
51838;SDS011;37886;53.174;6.368;2023-08-20T00:22:48;592.13;;;537.38;;
51838;SDS011;37886;53.174;6.368;2023-08-20T00:25:15;650.05;;;586.53;;
51838;SDS011;37886;53.174;6.368;2023-08-20T00:27:41;488.20;;;426.67;;
51838;SDS011;37886;53.174;6.368;2023-08-20T00:30:08;606.28;;;547.55;;
51838;SDS011;37886;53.174;6.368;2023-08-20T00:32:35;554.92;;;499.13;;
51838;SDS011;37886;53.174;6.368;2023-08-20T00:35:01;544.90;;;488.05;;
51838;SDS011;37886;53.174;6.368;2023-08-20T00:37:28;521.10;;;466.20;;
51838;SDS011;37886;53.174;6.368;2023-08-20T00:39:54;594.22;;;535.17;;
51838;SDS011;37886;53.174;6.368;2023-08-20T00:42:19;669.58;;;605.38;;
51838;SDS011;37886;53.174;6.368;2023-08-20T00:44:45;541.80;;;488.52;;
51838;SDS011;37886;53.174;6.368;2023-08-20T00:47:12;478.55;;;425.33;;
51838;SDS011;37886;53.174;6.368;2023-08-20T00:49:39;505.13;;;450.55;;
51838;SDS011;37886;53.174;6.368;2023-08-20T00:52:06;481.00;;;429.95;;
51838;SDS011;37886;53.174;6.368;2023-08-20T00:54:34;464.92;;;414.42;;
51838;SDS011;37886;53.174;6.368;2023-08-20T00:57:01;616.08;;;556.95;;
51838;SDS011;37886;53.174;6.368;2023-08-20T00:59:27;510.90;;;461.88;;
51838;SDS011;37886;53.174;6.368;2023-08-20T01:01:54;524.33;;;469.98;;
51838;SDS011;37886;53.174;6.368;2023-08-20T01:04:20;591.10;;;535.90;;
51838;SDS011;37886;53.174;6.368;2023-08-20T01:07:47;631.80;;;572.38;;
51838;SDS011;37886;53.174;6.368;2023-08-20T01:12:42;495.88;;;447.42;;
51838;SDS011;37886;53.174;6.368;2023-08-20T01:15:10;535.65;;;483.17;;
51838;SDS011;37886;53.174;6.368;2023-08-20T01:17:42;635.35;;;576.28;;
51838;SDS011;37886;53.174;6.368;2023-08-20T01:20:09;565.78;;;512.08;;
51838;SDS011;37886;53.174;6.368;2023-08-20T01:22:54;496.00;;;447.27;;
51838;SDS011;37886;53.174;6.368;2023-08-20T01:28:30;499.17;;;450.85;;
51838;SDS011;37886;53.174;6.368;2023-08-20T01:30:57;616.95;;;561.55;;
51838;SDS011;37886;53.174;6.368;2023-08-20T01:33:24;702.67;;;635.17;;
51838;SDS011;37886;53.174;6.368;2023-08-20T01:35:53;640.33;;;579.47;;
51838;SDS011;37886;53.174;6.368;2023-08-20T01:38:20;520.90;;;469.17;;
51838;SDS011;37886;53.174;6.368;2023-08-20T01:40:46;642.00;;;580.92;;
51838;SDS011;37886;53.174;6.368;2023-08-20T01:43:12;660.72;;;597.17;;
51838;SDS011;37886;53.174;6.368;2023-08-20T01:45:38;639.13;;;578.22;;
51838;SDS011;37886;53.174;6.368;2023-08-20T01:48:04;584.50;;;528.28;;
51838;SDS011;37886;53.174;6.368;2023-08-20T01:50:30;539.35;;;488.00;;
51838;SDS011;37886;53.174;6.368;2023-08-20T01:52:56;651.60;;;589.58;;
51838;SDS011;37886;53.174;6.368;2023-08-20T01:55:21;735.38;;;664.72;;
51838;SDS011;37886;53.174;6.368;2023-08-20T01:57:47;651.20;;;591.60;;
51838;SDS011;37886;53.174;6.368;2023-08-20T02:00:13;644.55;;;582.53;;
51838;SDS011;37886;53.174;6.368;2023-08-20T02:02:39;555.35;;;502.75;;
51838;SDS011;37886;53.174;6.368;2023-08-20T02:05:04;556.53;;;502.77;;
51838;SDS011;37886;53.174;6.368;2023-08-20T02:07:30;589.10;;;534.42;;
51838;SDS011;37886;53.174;6.368;2023-08-20T02:09:56;528.63;;;476.67;;
51838;SDS011;37886;53.174;6.368;2023-08-20T02:12:22;427.20;;;384.42;;
51838;SDS011;37886;53.174;6.368;2023-08-20T02:14:47;472.60;;;425.80;;
51838;SDS011;37886;53.174;6.368;2023-08-20T02:17:13;508.13;;;457.58;;
51838;SDS011;37886;53.174;6.368;2023-08-20T02:19:39;473.40;;;425.77;;
51838;SDS011;37886;53.174;6.368;2023-08-20T02:22:05;535.72;;;483.45;;
51838;SDS011;37886;53.174;6.368;2023-08-20T02:24:30;654.08;;;592.20;;
51838;SDS011;37886;53.174;6.368;2023-08-20T02:26:56;709.85;;;643.58;;
51838;SDS011;37886;53.174;6.368;2023-08-20T02:29:22;623.20;;;563.38;;
51838;SDS011;37886;53.174;6.368;2023-08-20T02:31:48;680.10;;;613.58;;
51838;SDS011;37886;53.174;6.368;2023-08-20T02:34:13;649.65;;;585.10;;
51838;SDS011;37886;53.174;6.368;2023-08-20T02:36:39;604.88;;;541.90;;
51838;SDS011;37886;53.174;6.368;2023-08-20T02:39:05;713.20;;;638.53;;
51838;SDS011;37886;53.174;6.368;2023-08-20T02:41:35;711.67;;;636.08;;
51838;SDS011;37886;53.174;6.368;2023-08-20T02:44:04;691.20;;;622.00;;
51838;SDS011;37886;53.174;6.368;2023-08-20T02:46:30;702.00;;;630.17;;
51838;SDS011;37886;53.174;6.368;2023-08-20T02:48:56;671.45;;;602.90;;
51838;SDS011;37886;53.174;6.368;2023-08-20T02:51:21;734.38;;;656.05;;
51838;SDS011;37886;53.174;6.368;2023-08-20T02:53:47;681.95;;;607.38;;
51838;SDS011;37886;53.174;6.368;2023-08-20T02:56:13;735.33;;;652.65;;
51838;SDS011;37886;53.174;6.368;2023-08-20T02:58:39;723.35;;;644.30;;
51838;SDS011;37886;53.174;6.368;2023-08-20T03:01:05;751.42;;;676.13;;
51838;SDS011;37886;53.174;6.368;2023-08-20T03:03:30;824.13;;;701.85;;
51838;SDS011;37886;53.174;6.368;2023-08-20T03:05:56;766.50;;;686.35;;
51838;SDS011;37886;53.174;6.368;2023-08-20T03:08:22;674.72;;;605.53;;
51838;SDS011;37886;53.174;6.368;2023-08-20T03:10:48;625.03;;;561.63;;
51838;SDS011;37886;53.174;6.368;2023-08-20T03:13:13;669.53;;;600.80;;
51838;SDS011;37886;53.174;6.368;2023-08-20T03:15:39;616.92;;;555.95;;
51838;SDS011;37886;53.174;6.368;2023-08-20T03:18:05;626.55;;;563.08;;
51838;SDS011;37886;53.174;6.368;2023-08-20T03:20:31;589.03;;;529.53;;
51838;SDS011;37886;53.174;6.368;2023-08-20T03:22:57;607.03;;;544.67;;
51838;SDS011;37886;53.174;6.368;2023-08-20T03:25:23;551.53;;;494.85;;
51838;SDS011;37886;53.174;6.368;2023-08-20T03:27:49;633.15;;;569.03;;
51838;SDS011;37886;53.174;6.368;2023-08-20T03:30:16;673.80;;;604.65;;
51838;SDS011;37886;53.174;6.368;2023-08-20T03:32:42;614.63;;;552.33;;
51838;SDS011;37886;53.174;6.368;2023-08-20T03:35:08;626.72;;;565.58;;
51838;SDS011;37886;53.174;6.368;2023-08-20T03:37:34;550.08;;;496.42;;
51838;SDS011;37886;53.174;6.368;2023-08-20T03:40:00;554.42;;;498.90;;
51838;SDS011;37886;53.174;6.368;2023-08-20T03:42:25;616.92;;;556.15;;
51838;SDS011;37886;53.174;6.368;2023-08-20T03:44:51;582.63;;;524.90;;
51838;SDS011;37886;53.174;6.368;2023-08-20T03:47:16;684.88;;;616.17;;
51838;SDS011;37886;53.174;6.368;2023-08-20T03:49:45;616.35;;;554.30;;
51838;SDS011;37886;53.174;6.368;2023-08-20T03:52:12;644.78;;;580.17;;
51838;SDS011;37886;53.174;6.368;2023-08-20T03:54:37;646.50;;;581.30;;
51838;SDS011;37886;53.174;6.368;2023-08-20T03:57:03;691.35;;;619.90;;
51838;SDS011;37886;53.174;6.368;2023-08-20T03:59:29;634.75;;;571.75;;
51838;SDS011;37886;53.174;6.368;2023-08-20T04:01:55;706.63;;;632.20;;
51838;SDS011;37886;53.174;6.368;2023-08-20T04:04:21;678.20;;;599.70;;
51838;SDS011;37886;53.174;6.368;2023-08-20T04:06:47;673.88;;;605.13;;
51838;SDS011;37886;53.174;6.368;2023-08-20T04:09:13;666.03;;;597.95;;
51838;SDS011;37886;53.174;6.368;2023-08-20T04:11:39;598.47;;;539.47;;
51838;SDS011;37886;53.174;6.368;2023-08-20T04:14:04;680.80;;;607.38;;
51838;SDS011;37886;53.174;6.368;2023-08-20T04:16:30;681.78;;;606.80;;
51838;SDS011;37886;53.174;6.368;2023-08-20T04:18:56;617.65;;;550.80;;
51838;SDS011;37886;53.174;6.368;2023-08-20T04:21:21;678.90;;;605.45;;
51838;SDS011;37886;53.174;6.368;2023-08-20T04:23:47;674.25;;;601.25;;
51838;SDS011;37886;53.174;6.368;2023-08-20T04:26:13;670.75;;;597.97;;
51838;SDS011;37886;53.174;6.368;2023-08-20T04:28:39;687.72;;;610.53;;
51838;SDS011;37886;53.174;6.368;2023-08-20T04:31:04;701.55;;;610.63;;
51838;SDS011;37886;53.174;6.368;2023-08-20T04:33:30;620.42;;;555.58;;
51838;SDS011;37886;53.174;6.368;2023-08-20T04:35:56;693.83;;;619.72;;
51838;SDS011;37886;53.174;6.368;2023-08-20T04:38:22;630.60;;;562.40;;
51838;SDS011;37886;53.174;6.368;2023-08-20T04:40:47;686.75;;;614.80;;
51838;SDS011;37886;53.174;6.368;2023-08-20T04:43:14;676.20;;;603.47;;
51838;SDS011;37886;53.174;6.368;2023-08-20T04:45:40;643.25;;;575.58;;
51838;SDS011;37886;53.174;6.368;2023-08-20T04:48:06;675.03;;;601.75;;
51838;SDS011;37886;53.174;6.368;2023-08-20T04:50:32;700.67;;;625.45;;
51838;SDS011;37886;53.174;6.368;2023-08-20T04:52:57;701.45;;;628.70;;
51838;SDS011;37886;53.174;6.368;2023-08-20T04:55:29;732.10;;;651.20;;
51838;SDS011;37886;53.174;6.368;2023-08-20T04:57:54;778.17;;;686.80;;
51838;SDS011;37886;53.174;6.368;2023-08-20T05:00:21;738.33;;;658.53;;
51838;SDS011;37886;53.174;6.368;2023-08-20T05:02:47;729.38;;;652.60;;
51838;SDS011;37886;53.174;6.368;2023-08-20T05:05:13;704.15;;;629.00;;
51838;SDS011;37886;53.174;6.368;2023-08-20T05:07:38;705.70;;;632.22;;
51838;SDS011;37886;53.174;6.368;2023-08-20T05:10:04;747.60;;;665.65;;
51838;SDS011;37886;53.174;6.368;2023-08-20T05:12:30;777.50;;;692.38;;
51838;SDS011;37886;53.174;6.368;2023-08-20T05:14:56;769.72;;;693.95;;
51838;SDS011;37886;53.174;6.368;2023-08-20T05:17:22;739.72;;;664.55;;
51838;SDS011;37886;53.174;6.368;2023-08-20T05:19:47;765.28;;;681.30;;
51838;SDS011;37886;53.174;6.368;2023-08-20T05:22:13;759.65;;;677.38;;
51838;SDS011;37886;53.174;6.368;2023-08-20T05:24:39;715.17;;;645.78;;
51838;SDS011;37886;53.174;6.368;2023-08-20T05:27:12;745.03;;;666.50;;
51838;SDS011;37886;53.174;6.368;2023-08-20T05:29:40;714.97;;;641.95;;
51838;SDS011;37886;53.174;6.368;2023-08-20T05:32:06;720.33;;;645.92;;
51838;SDS011;37886;53.174;6.368;2023-08-20T05:34:32;769.53;;;672.13;;
51838;SDS011;37886;53.174;6.368;2023-08-20T05:36:57;682.63;;;614.53;;
51838;SDS011;37886;53.174;6.368;2023-08-20T05:39:23;692.30;;;621.58;;
51838;SDS011;37886;53.174;6.368;2023-08-20T05:41:51;687.40;;;616.83;;
51838;SDS011;37886;53.174;6.368;2023-08-20T05:44:20;711.10;;;633.40;;
51838;SDS011;37886;53.174;6.368;2023-08-20T05:46:46;672.03;;;602.63;;
51838;SDS011;37886;53.174;6.368;2023-08-20T05:49:12;690.67;;;615.58;;
51838;SDS011;37886;53.174;6.368;2023-08-20T05:51:43;713.75;;;638.40;;
51838;SDS011;37886;53.174;6.368;2023-08-20T05:54:09;701.13;;;628.70;;
51838;SDS011;37886;53.174;6.368;2023-08-20T05:56:35;683.45;;;612.35;;
51838;SDS011;37886;53.174;6.368;2023-08-20T05:59:01;713.15;;;637.45;;
51838;SDS011;37886;53.174;6.368;2023-08-20T06:01:27;719.88;;;642.47;;
51838;SDS011;37886;53.174;6.368;2023-08-20T06:03:52;783.75;;;668.13;;
51838;SDS011;37886;53.174;6.368;2023-08-20T06:06:18;729.88;;;652.15;;
51838;SDS011;37886;53.174;6.368;2023-08-20T06:08:44;738.42;;;655.40;;
51838;SDS011;37886;53.174;6.368;2023-08-20T06:11:09;760.78;;;673.88;;
51838;SDS011;37886;53.174;6.368;2023-08-20T06:13:35;747.28;;;666.60;;
51838;SDS011;37886;53.174;6.368;2023-08-20T06:16:00;889.30;;;734.38;;
51838;SDS011;37886;53.174;6.368;2023-08-20T06:18:26;737.42;;;665.45;;
51838;SDS011;37886;53.174;6.368;2023-08-20T06:20:52;717.80;;;643.13;;
51838;SDS011;37886;53.174;6.368;2023-08-20T06:23:17;693.30;;;621.15;;
51838;SDS011;37886;53.174;6.368;2023-08-20T06:25:43;763.15;;;677.90;;
51838;SDS011;37886;53.174;6.368;2023-08-20T06:28:09;735.60;;;655.83;;
51838;SDS011;37886;53.174;6.368;2023-08-20T06:30:35;718.08;;;638.90;;
51838;SDS011;37886;53.174;6.368;2023-08-20T06:33:01;739.15;;;642.33;;
51838;SDS011;37886;53.174;6.368;2023-08-20T06:35:26;769.75;;;665.63;;
51838;SDS011;37886;53.174;6.368;2023-08-20T06:37:52;818.72;;;686.17;;
51838;SDS011;37886;53.174;6.368;2023-08-20T06:40:18;725.97;;;648.72;;
51838;SDS011;37886;53.174;6.368;2023-08-20T06:42:43;747.33;;;658.95;;
51838;SDS011;37886;53.174;6.368;2023-08-20T06:45:09;774.83;;;676.90;;
51838;SDS011;37886;53.174;6.368;2023-08-20T06:47:35;823.28;;;684.20;;
51838;SDS011;37886;53.174;6.368;2023-08-20T06:50:01;748.20;;;669.42;;
51838;SDS011;37886;53.174;6.368;2023-08-20T06:52:27;833.35;;;719.15;;
51838;SDS011;37886;53.174;6.368;2023-08-20T06:54:53;797.65;;;708.65;;
51838;SDS011;37886;53.174;6.368;2023-08-20T06:57:18;800.20;;;714.10;;
51838;SDS011;37886;53.174;6.368;2023-08-20T06:59:44;778.03;;;698.75;;
51838;SDS011;37886;53.174;6.368;2023-08-20T07:02:10;745.38;;;669.90;;
51838;SDS011;37886;53.174;6.368;2023-08-20T07:04:36;790.22;;;707.30;;
51838;SDS011;37886;53.174;6.368;2023-08-20T07:07:02;756.28;;;678.33;;
51838;SDS011;37886;53.174;6.368;2023-08-20T07:09:30;849.30;;;760.15;;
51838;SDS011;37886;53.174;6.368;2023-08-20T07:11:55;848.08;;;758.85;;
51838;SDS011;37886;53.174;6.368;2023-08-20T07:14:21;786.33;;;709.40;;
51838;SDS011;37886;53.174;6.368;2023-08-20T07:16:47;801.58;;;721.33;;
51838;SDS011;37886;53.174;6.368;2023-08-20T07:19:13;798.90;;;719.30;;
51838;SDS011;37886;53.174;6.368;2023-08-20T07:21:38;770.67;;;693.80;;
51838;SDS011;37886;53.174;6.368;2023-08-20T07:24:04;756.90;;;687.13;;
51838;SDS011;37886;53.174;6.368;2023-08-20T07:26:30;821.20;;;740.03;;
51838;SDS011;37886;53.174;6.368;2023-08-20T07:28:56;776.40;;;703.78;;
51838;SDS011;37886;53.174;6.368;2023-08-20T07:31:23;777.65;;;697.20;;
51838;SDS011;37886;53.174;6.368;2023-08-20T07:33:49;770.53;;;692.50;;
51838;SDS011;37886;53.174;6.368;2023-08-20T07:36:15;653.70;;;595.53;;
51838;SDS011;37886;53.174;6.368;2023-08-20T07:38:42;637.45;;;581.53;;
51838;SDS011;37886;53.174;6.368;2023-08-20T07:41:09;657.35;;;598.53;;
51838;SDS011;37886;53.174;6.368;2023-08-20T07:43:36;678.72;;;617.67;;
51838;SDS011;37886;53.174;6.368;2023-08-20T07:46:03;584.63;;;534.25;;
51838;SDS011;37886;53.174;6.368;2023-08-20T07:48:29;524.95;;;478.25;;
51838;SDS011;37886;53.174;6.368;2023-08-20T07:50:55;514.78;;;471.15;;
51838;SDS011;37886;53.174;6.368;2023-08-20T07:53:20;535.38;;;490.13;;
51838;SDS011;37886;53.174;6.368;2023-08-20T07:55:46;509.48;;;466.27;;
51838;SDS011;37886;53.174;6.368;2023-08-20T07:58:12;470.23;;;429.02;;
51838;SDS011;37886;53.174;6.368;2023-08-20T08:00:37;454.00;;;407.80;;
51838;SDS011;37886;53.174;6.368;2023-08-20T08:03:03;468.05;;;428.65;;
51838;SDS011;37886;53.174;6.368;2023-08-20T08:05:29;436.65;;;399.40;;
51838;SDS011;37886;53.174;6.368;2023-08-20T08:07:55;434.70;;;395.63;;
51838;SDS011;37886;53.174;6.368;2023-08-20T08:10:20;444.17;;;407.25;;
51838;SDS011;37886;53.174;6.368;2023-08-20T08:12:46;431.25;;;395.33;;
51838;SDS011;37886;53.174;6.368;2023-08-20T08:15:12;458.67;;;417.85;;
51838;SDS011;37886;53.174;6.368;2023-08-20T08:17:38;418.45;;;383.25;;
51838;SDS011;37886;53.174;6.368;2023-08-20T08:20:04;384.27;;;349.73;;
51838;SDS011;37886;53.174;6.368;2023-08-20T08:22:31;396.35;;;363.65;;
51838;SDS011;37886;53.174;6.368;2023-08-20T08:24:56;313.92;;;289.10;;
51838;SDS011;37886;53.174;6.368;2023-08-20T08:27:22;349.30;;;319.05;;
51838;SDS011;37886;53.174;6.368;2023-08-20T08:29:48;312.35;;;287.75;;
51838;SDS011;37886;53.174;6.368;2023-08-20T08:32:13;367.75;;;331.35;;
51838;SDS011;37886;53.174;6.368;2023-08-20T08:34:39;248.60;;;230.18;;
51838;SDS011;37886;53.174;6.368;2023-08-20T08:37:05;303.67;;;278.00;;
51838;SDS011;37886;53.174;6.368;2023-08-20T08:39:30;342.67;;;312.25;;
51838;SDS011;37886;53.174;6.368;2023-08-20T08:42:00;365.70;;;331.27;;
51838;SDS011;37886;53.174;6.368;2023-08-20T08:44:34;281.65;;;259.88;;
51838;SDS011;37886;53.174;6.368;2023-08-20T08:47:01;340.33;;;312.42;;
51838;SDS011;37886;53.174;6.368;2023-08-20T08:49:28;378.95;;;346.92;;
51838;SDS011;37886;53.174;6.368;2023-08-20T08:51:58;355.80;;;326.67;;
51838;SDS011;37886;53.174;6.368;2023-08-20T08:54:25;334.15;;;306.17;;
51838;SDS011;37886;53.174;6.368;2023-08-20T08:56:52;511.98;;;463.05;;
51838;SDS011;37886;53.174;6.368;2023-08-20T08:59:18;428.08;;;384.48;;
51838;SDS011;37886;53.174;6.368;2023-08-20T09:01:44;376.67;;;344.00;;
51838;SDS011;37886;53.174;6.368;2023-08-20T09:04:10;354.98;;;326.00;;
51838;SDS011;37886;53.174;6.368;2023-08-20T09:06:52;420.67;;;380.55;;
51838;SDS011;37886;53.174;6.368;2023-08-20T09:09:20;461.63;;;415.73;;
51838;SDS011;37886;53.174;6.368;2023-08-20T09:11:47;334.77;;;311.38;;
51838;SDS011;37886;53.174;6.368;2023-08-20T09:14:23;306.65;;;285.80;;
51838;SDS011;37886;53.174;6.368;2023-08-20T09:16:55;357.00;;;327.23;;
51838;SDS011;37886;53.174;6.368;2023-08-20T09:19:22;433.15;;;400.15;;
51838;SDS011;37886;53.174;6.368;2023-08-20T09:21:48;268.55;;;250.73;;
51838;SDS011;37886;53.174;6.368;2023-08-20T09:24:14;376.13;;;347.00;;
51838;SDS011;37886;53.174;6.368;2023-08-20T09:26:45;442.60;;;405.83;;
51838;SDS011;37886;53.174;6.368;2023-08-20T09:29:10;329.33;;;306.50;;
51838;SDS011;37886;53.174;6.368;2023-08-20T09:31:39;386.00;;;353.48;;
51838;SDS011;37886;53.174;6.368;2023-08-20T09:34:05;348.38;;;318.52;;
51838;SDS011;37886;53.174;6.368;2023-08-20T09:36:31;430.92;;;389.15;;
51838;SDS011;37886;53.174;6.368;2023-08-20T09:38:58;334.45;;;309.00;;
51838;SDS011;37886;53.174;6.368;2023-08-20T09:41:24;373.58;;;340.48;;
51838;SDS011;37886;53.174;6.368;2023-08-20T09:44:00;416.42;;;382.98;;
51838;SDS011;37886;53.174;6.368;2023-08-20T09:46:31;347.33;;;322.83;;
51838;SDS011;37886;53.174;6.368;2023-08-20T09:48:57;309.05;;;286.90;;
51838;SDS011;37886;53.174;6.368;2023-08-20T09:51:24;327.55;;;303.83;;
51838;SDS011;37886;53.174;6.368;2023-08-20T09:56:38;454.73;;;420.35;;
51838;SDS011;37886;53.174;6.368;2023-08-20T09:59:04;400.42;;;370.70;;
51838;SDS011;37886;53.174;6.368;2023-08-20T10:01:32;304.08;;;282.55;;
51838;SDS011;37886;53.174;6.368;2023-08-20T10:03:59;275.98;;;257.58;;
51838;SDS011;37886;53.174;6.368;2023-08-20T10:06:24;489.92;;;452.40;;
51838;SDS011;37886;53.174;6.368;2023-08-20T10:08:51;393.40;;;362.30;;
51838;SDS011;37886;53.174;6.368;2023-08-20T10:11:18;434.15;;;401.35;;
51838;SDS011;37886;53.174;6.368;2023-08-20T10:13:44;665.70;;;606.53;;
51838;SDS011;37886;53.174;6.368;2023-08-20T10:16:13;855.85;;;782.80;;
51838;SDS011;37886;53.174;6.368;2023-08-20T10:18:44;751.88;;;688.15;;
51838;SDS011;37886;53.174;6.368;2023-08-20T10:21:11;459.70;;;422.90;;
51838;SDS011;37886;53.174;6.368;2023-08-20T10:23:40;721.42;;;661.63;;
51838;SDS011;37886;53.174;6.368;2023-08-20T10:26:07;373.17;;;344.88;;
51838;SDS011;37886;53.174;6.368;2023-08-20T10:28:34;923.92;;;842.38;;
51838;SDS011;37886;53.174;6.368;2023-08-20T10:31:08;552.17;;;507.35;;
51838;SDS011;37886;53.174;6.368;2023-08-20T10:33:38;627.50;;;577.15;;
51838;SDS011;37886;53.174;6.368;2023-08-20T10:36:15;741.40;;;677.53;;
51838;SDS011;37886;53.174;6.368;2023-08-20T10:38:47;905.83;;;810.10;;
51838;SDS011;37886;53.174;6.368;2023-08-20T10:41:15;713.47;;;654.28;;
51838;SDS011;37886;53.174;6.368;2023-08-20T10:43:48;681.13;;;626.85;;
51838;SDS011;37886;53.174;6.368;2023-08-20T10:46:21;705.20;;;649.15;;
51838;SDS011;37886;53.174;6.368;2023-08-20T10:51:26;657.38;;;604.60;;
51838;SDS011;37886;53.174;6.368;2023-08-20T11:01:55;398.52;;;370.65;;
51838;SDS011;37886;53.174;6.368;2023-08-20T11:04:23;683.22;;;628.50;;
51838;SDS011;37886;53.174;6.368;2023-08-20T11:06:58;475.13;;;441.98;;
51838;SDS011;37886;53.174;6.368;2023-08-20T11:09:25;387.50;;;361.00;;
51838;SDS011;37886;53.174;6.368;2023-08-20T11:11:52;817.63;;;748.03;;
51838;SDS011;37886;53.174;6.368;2023-08-20T11:14:19;722.22;;;666.05;;
51838;SDS011;37886;53.174;6.368;2023-08-20T11:16:45;785.00;;;722.45;;
51838;SDS011;37886;53.174;6.368;2023-08-20T11:19:12;781.60;;;719.25;;
51838;SDS011;37886;53.174;6.368;2023-08-20T11:21:40;840.13;;;772.08;;
51838;SDS011;37886;53.174;6.368;2023-08-20T11:24:06;618.42;;;572.85;;
51838;SDS011;37886;53.174;6.368;2023-08-20T11:26:33;666.17;;;615.35;;
51838;SDS011;37886;53.174;6.368;2023-08-20T11:29:09;621.65;;;575.10;;
51838;SDS011;37886;53.174;6.368;2023-08-20T11:31:36;616.90;;;570.33;;
51838;SDS011;37886;53.174;6.368;2023-08-20T11:34:03;766.47;;;701.58;;
51838;SDS011;37886;53.174;6.368;2023-08-20T11:36:29;369.40;;;342.15;;
51838;SDS011;37886;53.174;6.368;2023-08-20T11:38:55;52.08;;;48.50;;
51838;SDS011;37886;53.174;6.368;2023-08-20T11:41:21;56.60;;;52.38;;
51838;SDS011;37886;53.174;6.368;2023-08-20T11:43:48;173.25;;;161.60;;
51838;SDS011;37886;53.174;6.368;2023-08-20T11:46:15;247.23;;;229.32;;
51838;SDS011;37886;53.174;6.368;2023-08-20T11:51:25;85.50;;;78.55;;
51838;SDS011;37886;53.174;6.368;2023-08-20T11:53:50;81.90;;;76.22;;
51838;SDS011;37886;53.174;6.368;2023-08-20T11:56:16;34.28;;;31.67;;
51838;SDS011;37886;53.174;6.368;2023-08-20T11:58:42;186.30;;;173.85;;
51838;SDS011;37886;53.174;6.368;2023-08-20T12:01:07;82.05;;;76.47;;
51838;SDS011;37886;53.174;6.368;2023-08-20T12:03:34;79.85;;;74.65;;
51838;SDS011;37886;53.174;6.368;2023-08-20T12:06:21;62.92;;;58.72;;
51838;SDS011;37886;53.174;6.368;2023-08-20T12:08:53;73.28;;;68.60;;
51838;SDS011;37886;53.174;6.368;2023-08-20T12:11:22;61.88;;;57.45;;
51838;SDS011;37886;53.174;6.368;2023-08-20T12:13:52;75.60;;;70.25;;
51838;SDS011;37886;53.174;6.368;2023-08-20T12:16:18;49.75;;;46.10;;
51838;SDS011;37886;53.174;6.368;2023-08-20T12:18:46;55.65;;;51.67;;
51838;SDS011;37886;53.174;6.368;2023-08-20T12:21:12;56.15;;;52.38;;
51838;SDS011;37886;53.174;6.368;2023-08-20T12:23:38;53.97;;;49.92;;
51838;SDS011;37886;53.174;6.368;2023-08-20T12:26:05;55.05;;;51.10;;
51838;SDS011;37886;53.174;6.368;2023-08-20T12:28:30;49.63;;;46.10;;
51838;SDS011;37886;53.174;6.368;2023-08-20T12:30:56;42.55;;;39.45;;
51838;SDS011;37886;53.174;6.368;2023-08-20T12:33:22;73.07;;;67.95;;
51838;SDS011;37886;53.174;6.368;2023-08-20T12:35:48;48.67;;;45.50;;
51838;SDS011;37886;53.174;6.368;2023-08-20T12:38:14;88.63;;;82.70;;
51838;SDS011;37886;53.174;6.368;2023-08-20T12:40:40;69.88;;;64.93;;
51838;SDS011;37886;53.174;6.368;2023-08-20T12:43:06;87.18;;;80.90;;
51838;SDS011;37886;53.174;6.368;2023-08-20T12:45:31;52.08;;;48.55;;
51838;SDS011;37886;53.174;6.368;2023-08-20T12:47:57;73.80;;;68.78;;
51838;SDS011;37886;53.174;6.368;2023-08-20T12:50:23;63.67;;;59.35;;
51838;SDS011;37886;53.174;6.368;2023-08-20T12:52:50;81.82;;;76.13;;
51838;SDS011;37886;53.174;6.368;2023-08-20T12:55:16;78.07;;;72.95;;
51838;SDS011;37886;53.174;6.368;2023-08-20T12:57:52;50.70;;;46.65;;
51838;SDS011;37886;53.174;6.368;2023-08-20T13:02:50;28.65;;;26.20;;
51838;SDS011;37886;53.174;6.368;2023-08-20T13:05:15;91.07;;;84.65;;
51838;SDS011;37886;53.174;6.368;2023-08-20T13:07:42;57.50;;;53.47;;
51838;SDS011;37886;53.174;6.368;2023-08-20T13:10:07;61.03;;;56.92;;
51838;SDS011;37886;53.174;6.368;2023-08-20T13:12:34;58.28;;;54.35;;
51838;SDS011;37886;53.174;6.368;2023-08-20T13:15:00;75.40;;;70.22;;
51838;SDS011;37886;53.174;6.368;2023-08-20T13:17:28;86.10;;;80.13;;
51838;SDS011;37886;53.174;6.368;2023-08-20T13:19:55;78.43;;;73.18;;
51838;SDS011;37886;53.174;6.368;2023-08-20T13:22:21;71.82;;;66.95;;
51838;SDS011;37886;53.174;6.368;2023-08-20T13:24:47;71.85;;;67.07;;
51838;SDS011;37886;53.174;6.368;2023-08-20T13:27:13;73.88;;;69.13;;
51838;SDS011;37886;53.174;6.368;2023-08-20T13:29:40;76.28;;;71.10;;
51838;SDS011;37886;53.174;6.368;2023-08-20T13:32:06;89.30;;;83.65;;
51838;SDS011;37886;53.174;6.368;2023-08-20T13:34:32;93.60;;;87.57;;
51838;SDS011;37886;53.174;6.368;2023-08-20T13:36:57;84.93;;;79.53;;
51838;SDS011;37886;53.174;6.368;2023-08-20T13:39:24;53.33;;;49.90;;
51838;SDS011;37886;53.174;6.368;2023-08-20T13:41:50;73.80;;;68.93;;
51838;SDS011;37886;53.174;6.368;2023-08-20T13:44:16;77.35;;;72.43;;
51838;SDS011;37886;53.174;6.368;2023-08-20T13:46:42;76.25;;;71.18;;
51838;SDS011;37886;53.174;6.368;2023-08-20T13:49:08;46.83;;;43.67;;
51838;SDS011;37886;53.174;6.368;2023-08-20T13:51:33;45.13;;;41.88;;
51838;SDS011;37886;53.174;6.368;2023-08-20T13:54:00;49.38;;;45.80;;
51838;SDS011;37886;53.174;6.368;2023-08-20T13:56:26;50.30;;;46.80;;
51838;SDS011;37886;53.174;6.368;2023-08-20T13:58:52;26.60;;;24.63;;
51838;SDS011;37886;53.174;6.368;2023-08-20T14:01:18;21.98;;;20.40;;
51838;SDS011;37886;53.174;6.368;2023-08-20T14:03:44;44.85;;;41.75;;
51838;SDS011;37886;53.174;6.368;2023-08-20T14:06:09;49.75;;;46.45;;
51838;SDS011;37886;53.174;6.368;2023-08-20T14:08:35;60.67;;;56.20;;
51838;SDS011;37886;53.174;6.368;2023-08-20T14:11:01;39.20;;;36.55;;
51838;SDS011;37886;53.174;6.368;2023-08-20T14:13:26;46.85;;;43.75;;
51838;SDS011;37886;53.174;6.368;2023-08-20T14:15:52;68.82;;;64.38;;
51838;SDS011;37886;53.174;6.368;2023-08-20T14:18:18;57.15;;;53.05;;
51838;SDS011;37886;53.174;6.368;2023-08-20T14:20:43;58.17;;;54.10;;
51838;SDS011;37886;53.174;6.368;2023-08-20T14:23:09;63.90;;;59.65;;